sensor_id;sensor_type;location;lat;lon;timestamp;P1;durP1;ratioP1;P2;durP2;ratioP2
21539;SDS011;10931;52.164;5.518;2022-07-29T00:07:54;0.55;;;0.30;;
21539;SDS011;10931;52.164;5.518;2022-07-29T00:10:48;0.40;;;0.40;;
21539;SDS011;10931;52.164;5.518;2022-07-29T00:13:14;0.20;;;0.20;;
21539;SDS011;10931;52.164;5.518;2022-07-29T00:15:44;0.40;;;0.30;;
21539;SDS011;10931;52.164;5.518;2022-07-29T00:18:11;0.40;;;0.40;;
21539;SDS011;10931;52.164;5.518;2022-07-29T00:20:45;0.57;;;0.30;;
21539;SDS011;10931;52.164;5.518;2022-07-29T00:23:19;0.30;;;0.30;;
21539;SDS011;10931;52.164;5.518;2022-07-29T00:25:45;0.35;;;0.30;;
21539;SDS011;10931;52.164;5.518;2022-07-29T00:28:22;0.30;;;0.30;;
21539;SDS011;10931;52.164;5.518;2022-07-29T00:33:21;1.75;;;0.35;;
21539;SDS011;10931;52.164;5.518;2022-07-29T00:35:48;1.95;;;0.32;;
21539;SDS011;10931;52.164;5.518;2022-07-29T00:38:15;0.75;;;0.40;;
21539;SDS011;10931;52.164;5.518;2022-07-29T00:40:42;0.65;;;0.40;;
21539;SDS011;10931;52.164;5.518;2022-07-29T00:43:08;0.47;;;0.30;;
21539;SDS011;10931;52.164;5.518;2022-07-29T00:45:35;0.73;;;0.40;;
21539;SDS011;10931;52.164;5.518;2022-07-29T00:48:06;1.00;;;0.35;;
21539;SDS011;10931;52.164;5.518;2022-07-29T00:50:45;0.82;;;0.40;;
21539;SDS011;10931;52.164;5.518;2022-07-29T00:53:12;0.50;;;0.35;;
21539;SDS011;10931;52.164;5.518;2022-07-29T00:55:38;0.30;;;0.30;;
21539;SDS011;10931;52.164;5.518;2022-07-29T00:58:09;0.30;;;0.30;;
21539;SDS011;10931;52.164;5.518;2022-07-29T01:00:43;0.30;;;0.30;;
21539;SDS011;10931;52.164;5.518;2022-07-29T01:03:10;0.82;;;0.40;;
21539;SDS011;10931;52.164;5.518;2022-07-29T01:05:36;0.55;;;0.40;;
21539;SDS011;10931;52.164;5.518;2022-07-29T01:08:04;0.85;;;0.45;;
21539;SDS011;10931;52.164;5.518;2022-07-29T01:10:31;0.57;;;0.30;;
21539;SDS011;10931;52.164;5.518;2022-07-29T01:15:29;1.08;;;0.55;;
21539;SDS011;10931;52.164;5.518;2022-07-29T01:18:05;1.73;;;0.30;;
21539;SDS011;10931;52.164;5.518;2022-07-29T01:21:00;0.55;;;0.30;;
21539;SDS011;10931;52.164;5.518;2022-07-29T01:29:59;0.43;;;0.30;;
21539;SDS011;10931;52.164;5.518;2022-07-29T01:32:26;0.30;;;0.30;;
21539;SDS011;10931;52.164;5.518;2022-07-29T01:34:58;0.47;;;0.40;;
21539;SDS011;10931;52.164;5.518;2022-07-29T01:43:27;0.20;;;0.20;;
21539;SDS011;10931;52.164;5.518;2022-07-29T01:46:04;0.40;;;0.40;;
21539;SDS011;10931;52.164;5.518;2022-07-29T01:51:25;1.23;;;0.32;;
21539;SDS011;10931;52.164;5.518;2022-07-29T01:54:05;0.88;;;0.30;;
21539;SDS011;10931;52.164;5.518;2022-07-29T01:56:35;0.30;;;0.28;;
21539;SDS011;10931;52.164;5.518;2022-07-29T01:59:03;0.60;;;0.50;;
21539;SDS011;10931;52.164;5.518;2022-07-29T02:01:32;0.45;;;0.40;;
21539;SDS011;10931;52.164;5.518;2022-07-29T02:04:02;1.75;;;0.30;;
21539;SDS011;10931;52.164;5.518;2022-07-29T02:06:30;0.52;;;0.30;;
21539;SDS011;10931;52.164;5.518;2022-07-29T02:09:04;0.32;;;0.32;;
21539;SDS011;10931;52.164;5.518;2022-07-29T02:11:31;0.52;;;0.30;;
21539;SDS011;10931;52.164;5.518;2022-07-29T02:14:00;0.55;;;0.40;;
21539;SDS011;10931;52.164;5.518;2022-07-29T02:16:30;0.35;;;0.35;;
21539;SDS011;10931;52.164;5.518;2022-07-29T02:19:11;0.60;;;0.40;;
21539;SDS011;10931;52.164;5.518;2022-07-29T02:21:39;0.38;;;0.30;;
21539;SDS011;10931;52.164;5.518;2022-07-29T02:24:17;0.30;;;0.30;;
21539;SDS011;10931;52.164;5.518;2022-07-29T02:26:46;0.40;;;0.30;;
21539;SDS011;10931;52.164;5.518;2022-07-29T02:29:14;0.30;;;0.30;;
21539;SDS011;10931;52.164;5.518;2022-07-29T02:31:50;0.30;;;0.30;;
21539;SDS011;10931;52.164;5.518;2022-07-29T02:34:19;0.55;;;0.28;;
21539;SDS011;10931;52.164;5.518;2022-07-29T02:39:26;0.40;;;0.30;;
21539;SDS011;10931;52.164;5.518;2022-07-29T02:41:55;1.05;;;0.45;;
21539;SDS011;10931;52.164;5.518;2022-07-29T02:44:26;0.55;;;0.25;;
21539;SDS011;10931;52.164;5.518;2022-07-29T02:50:20;0.77;;;0.50;;
21539;SDS011;10931;52.164;5.518;2022-07-29T02:52:54;0.93;;;0.47;;
21539;SDS011;10931;52.164;5.518;2022-07-29T02:55:29;0.60;;;0.30;;
21539;SDS011;10931;52.164;5.518;2022-07-29T03:00:53;0.38;;;0.30;;
21539;SDS011;10931;52.164;5.518;2022-07-29T03:03:25;0.77;;;0.40;;
21539;SDS011;10931;52.164;5.518;2022-07-29T03:05:56;0.50;;;0.30;;
21539;SDS011;10931;52.164;5.518;2022-07-29T03:08:25;0.28;;;0.28;;
21539;SDS011;10931;52.164;5.518;2022-07-29T03:10:53;0.45;;;0.30;;
21539;SDS011;10931;52.164;5.518;2022-07-29T03:13:23;0.22;;;0.20;;
21539;SDS011;10931;52.164;5.518;2022-07-29T03:15:49;0.80;;;0.28;;
21539;SDS011;10931;52.164;5.518;2022-07-29T03:18:18;0.45;;;0.30;;
21539;SDS011;10931;52.164;5.518;2022-07-29T03:20:44;0.20;;;0.20;;
21539;SDS011;10931;52.164;5.518;2022-07-29T03:23:10;0.50;;;0.30;;
21539;SDS011;10931;52.164;5.518;2022-07-29T03:25:36;0.50;;;0.30;;
21539;SDS011;10931;52.164;5.518;2022-07-29T03:28:02;0.32;;;0.32;;
21539;SDS011;10931;52.164;5.518;2022-07-29T03:30:29;0.50;;;0.38;;
21539;SDS011;10931;52.164;5.518;2022-07-29T03:33:06;0.70;;;0.40;;
21539;SDS011;10931;52.164;5.518;2022-07-29T03:35:39;0.38;;;0.32;;
21539;SDS011;10931;52.164;5.518;2022-07-29T03:38:05;0.30;;;0.30;;
21539;SDS011;10931;52.164;5.518;2022-07-29T03:43:20;0.47;;;0.40;;
21539;SDS011;10931;52.164;5.518;2022-07-29T03:45:49;0.40;;;0.30;;
21539;SDS011;10931;52.164;5.518;2022-07-29T03:48:31;0.43;;;0.30;;
21539;SDS011;10931;52.164;5.518;2022-07-29T03:51:00;0.57;;;0.40;;
21539;SDS011;10931;52.164;5.518;2022-07-29T03:53:26;0.40;;;0.40;;
21539;SDS011;10931;52.164;5.518;2022-07-29T03:55:54;0.35;;;0.32;;
21539;SDS011;10931;52.164;5.518;2022-07-29T04:00:57;0.35;;;0.35;;
21539;SDS011;10931;52.164;5.518;2022-07-29T04:03:28;0.20;;;0.20;;
21539;SDS011;10931;52.164;5.518;2022-07-29T04:05:58;1.05;;;0.45;;
21539;SDS011;10931;52.164;5.518;2022-07-29T04:08:30;0.30;;;0.30;;
21539;SDS011;10931;52.164;5.518;2022-07-29T04:13:45;0.68;;;0.40;;
21539;SDS011;10931;52.164;5.518;2022-07-29T04:16:12;0.32;;;0.32;;
21539;SDS011;10931;52.164;5.518;2022-07-29T04:18:39;1.27;;;0.30;;
21539;SDS011;10931;52.164;5.518;2022-07-29T04:21:06;1.05;;;0.60;;
21539;SDS011;10931;52.164;5.518;2022-07-29T04:23:35;0.20;;;0.20;;
21539;SDS011;10931;52.164;5.518;2022-07-29T04:26:04;0.40;;;0.30;;
21539;SDS011;10931;52.164;5.518;2022-07-29T04:28:29;0.60;;;0.40;;
21539;SDS011;10931;52.164;5.518;2022-07-29T04:30:55;1.50;;;0.40;;
21539;SDS011;10931;52.164;5.518;2022-07-29T04:33:27;0.43;;;0.38;;
21539;SDS011;10931;52.164;5.518;2022-07-29T04:36:00;0.30;;;0.30;;
21539;SDS011;10931;52.164;5.518;2022-07-29T04:38:26;1.10;;;0.40;;
21539;SDS011;10931;52.164;5.518;2022-07-29T04:43:40;0.47;;;0.30;;
21539;SDS011;10931;52.164;5.518;2022-07-29T04:46:08;0.70;;;0.30;;
21539;SDS011;10931;52.164;5.518;2022-07-29T04:48:39;0.45;;;0.30;;
21539;SDS011;10931;52.164;5.518;2022-07-29T04:51:05;1.10;;;0.30;;
21539;SDS011;10931;52.164;5.518;2022-07-29T04:53:32;0.40;;;0.40;;
21539;SDS011;10931;52.164;5.518;2022-07-29T04:56:01;0.30;;;0.30;;
21539;SDS011;10931;52.164;5.518;2022-07-29T04:58:34;0.52;;;0.40;;
21539;SDS011;10931;52.164;5.518;2022-07-29T05:01:00;0.68;;;0.40;;
21539;SDS011;10931;52.164;5.518;2022-07-29T05:03:26;0.50;;;0.30;;
21539;SDS011;10931;52.164;5.518;2022-07-29T05:05:52;0.55;;;0.40;;
21539;SDS011;10931;52.164;5.518;2022-07-29T05:08:21;0.50;;;0.35;;
21539;SDS011;10931;52.164;5.518;2022-07-29T05:10:49;0.82;;;0.50;;
21539;SDS011;10931;52.164;5.518;2022-07-29T05:13:15;0.73;;;0.40;;
21539;SDS011;10931;52.164;5.518;2022-07-29T05:15:41;1.17;;;0.40;;
21539;SDS011;10931;52.164;5.518;2022-07-29T05:18:07;0.50;;;0.40;;
21539;SDS011;10931;52.164;5.518;2022-07-29T05:20:32;0.95;;;0.40;;
21539;SDS011;10931;52.164;5.518;2022-07-29T05:22:59;0.30;;;0.30;;
21539;SDS011;10931;52.164;5.518;2022-07-29T05:25:26;0.38;;;0.30;;
21539;SDS011;10931;52.164;5.518;2022-07-29T05:28:02;0.50;;;0.43;;
21539;SDS011;10931;52.164;5.518;2022-07-29T05:30:28;0.40;;;0.32;;
21539;SDS011;10931;52.164;5.518;2022-07-29T05:32:56;0.80;;;0.30;;
21539;SDS011;10931;52.164;5.518;2022-07-29T05:35:22;0.50;;;0.40;;
21539;SDS011;10931;52.164;5.518;2022-07-29T05:37:48;0.55;;;0.45;;
21539;SDS011;10931;52.164;5.518;2022-07-29T05:40:20;0.68;;;0.50;;
21539;SDS011;10931;52.164;5.518;2022-07-29T05:42:46;0.82;;;0.40;;
21539;SDS011;10931;52.164;5.518;2022-07-29T05:45:12;0.40;;;0.40;;
21539;SDS011;10931;52.164;5.518;2022-07-29T05:47:46;0.55;;;0.35;;
21539;SDS011;10931;52.164;5.518;2022-07-29T05:50:11;1.05;;;0.57;;
21539;SDS011;10931;52.164;5.518;2022-07-29T05:52:37;3.40;;;0.50;;
21539;SDS011;10931;52.164;5.518;2022-07-29T05:55:04;1.27;;;0.43;;
21539;SDS011;10931;52.164;5.518;2022-07-29T05:57:33;0.32;;;0.30;;
21539;SDS011;10931;52.164;5.518;2022-07-29T05:59:59;0.80;;;0.40;;
21539;SDS011;10931;52.164;5.518;2022-07-29T06:02:26;0.40;;;0.35;;
21539;SDS011;10931;52.164;5.518;2022-07-29T06:05:00;0.60;;;0.43;;
21539;SDS011;10931;52.164;5.518;2022-07-29T06:07:28;0.30;;;0.30;;
21539;SDS011;10931;52.164;5.518;2022-07-29T06:09:53;0.32;;;0.30;;
21539;SDS011;10931;52.164;5.518;2022-07-29T06:12:19;0.57;;;0.45;;
21539;SDS011;10931;52.164;5.518;2022-07-29T06:14:47;0.55;;;0.40;;
21539;SDS011;10931;52.164;5.518;2022-07-29T06:17:13;0.57;;;0.38;;
21539;SDS011;10931;52.164;5.518;2022-07-29T06:19:43;1.05;;;0.55;;
21539;SDS011;10931;52.164;5.518;2022-07-29T06:22:10;0.95;;;0.40;;
21539;SDS011;10931;52.164;5.518;2022-07-29T06:24:36;1.40;;;0.50;;
21539;SDS011;10931;52.164;5.518;2022-07-29T06:27:10;0.30;;;0.30;;
21539;SDS011;10931;52.164;5.518;2022-07-29T06:29:36;0.90;;;0.30;;
21539;SDS011;10931;52.164;5.518;2022-07-29T06:34:39;0.47;;;0.40;;
21539;SDS011;10931;52.164;5.518;2022-07-29T06:37:07;0.35;;;0.30;;
21539;SDS011;10931;52.164;5.518;2022-07-29T06:39:43;0.55;;;0.40;;
21539;SDS011;10931;52.164;5.518;2022-07-29T06:42:11;0.95;;;0.60;;
21539;SDS011;10931;52.164;5.518;2022-07-29T06:47:10;1.05;;;0.38;;
21539;SDS011;10931;52.164;5.518;2022-07-29T06:49:36;0.40;;;0.35;;
21539;SDS011;10931;52.164;5.518;2022-07-29T06:52:07;1.08;;;0.40;;
21539;SDS011;10931;52.164;5.518;2022-07-29T06:54:33;0.82;;;0.40;;
21539;SDS011;10931;52.164;5.518;2022-07-29T06:57:07;1.27;;;0.45;;
21539;SDS011;10931;52.164;5.518;2022-07-29T06:59:33;0.40;;;0.40;;
21539;SDS011;10931;52.164;5.518;2022-07-29T07:02:02;1.00;;;0.40;;
21539;SDS011;10931;52.164;5.518;2022-07-29T07:04:32;0.38;;;0.30;;
21539;SDS011;10931;52.164;5.518;2022-07-29T07:06:58;0.75;;;0.40;;
21539;SDS011;10931;52.164;5.518;2022-07-29T07:12:00;0.63;;;0.40;;
21539;SDS011;10931;52.164;5.518;2022-07-29T07:14:49;0.57;;;0.40;;
21539;SDS011;10931;52.164;5.518;2022-07-29T07:17:18;1.05;;;0.40;;
21539;SDS011;10931;52.164;5.518;2022-07-29T07:19:44;0.57;;;0.40;;
21539;SDS011;10931;52.164;5.518;2022-07-29T07:22:13;0.60;;;0.50;;
21539;SDS011;10931;52.164;5.518;2022-07-29T07:24:43;0.32;;;0.32;;
21539;SDS011;10931;52.164;5.518;2022-07-29T07:27:15;1.30;;;0.45;;
21539;SDS011;10931;52.164;5.518;2022-07-29T07:29:43;0.70;;;0.40;;
21539;SDS011;10931;52.164;5.518;2022-07-29T07:32:25;0.40;;;0.35;;
21539;SDS011;10931;52.164;5.518;2022-07-29T07:34:59;0.45;;;0.38;;
21539;SDS011;10931;52.164;5.518;2022-07-29T07:37:28;0.45;;;0.45;;
21539;SDS011;10931;52.164;5.518;2022-07-29T07:40:05;0.50;;;0.50;;
21539;SDS011;10931;52.164;5.518;2022-07-29T07:42:34;0.55;;;0.50;;
21539;SDS011;10931;52.164;5.518;2022-07-29T07:45:03;0.40;;;0.40;;
21539;SDS011;10931;52.164;5.518;2022-07-29T07:47:31;0.70;;;0.50;;
21539;SDS011;10931;52.164;5.518;2022-07-29T07:50:16;0.50;;;0.50;;
21539;SDS011;10931;52.164;5.518;2022-07-29T08:03:45;1.05;;;0.60;;
21539;SDS011;10931;52.164;5.518;2022-07-29T08:06:27;0.40;;;0.30;;
21539;SDS011;10931;52.164;5.518;2022-07-29T08:11:29;0.77;;;0.40;;
21539;SDS011;10931;52.164;5.518;2022-07-29T08:14:17;1.00;;;0.45;;
21539;SDS011;10931;52.164;5.518;2022-07-29T08:29:50;0.55;;;0.50;;
21539;SDS011;10931;52.164;5.518;2022-07-29T08:32:20;0.77;;;0.40;;
21539;SDS011;10931;52.164;5.518;2022-07-29T08:35:07;0.50;;;0.50;;
21539;SDS011;10931;52.164;5.518;2022-07-29T08:37:51;0.95;;;0.50;;
21539;SDS011;10931;52.164;5.518;2022-07-29T08:46:20;1.58;;;0.50;;
21539;SDS011;10931;52.164;5.518;2022-07-29T08:48:50;0.85;;;0.70;;
21539;SDS011;10931;52.164;5.518;2022-07-29T08:51:17;0.98;;;0.57;;
21539;SDS011;10931;52.164;5.518;2022-07-29T08:53:59;0.88;;;0.50;;
21539;SDS011;10931;52.164;5.518;2022-07-29T08:58:59;0.90;;;0.50;;
21539;SDS011;10931;52.164;5.518;2022-07-29T09:01:29;2.10;;;0.70;;
21539;SDS011;10931;52.164;5.518;2022-07-29T09:04:11;0.60;;;0.60;;
21539;SDS011;10931;52.164;5.518;2022-07-29T09:06:40;1.42;;;0.65;;
21539;SDS011;10931;52.164;5.518;2022-07-29T09:09:09;0.60;;;0.57;;
21539;SDS011;10931;52.164;5.518;2022-07-29T09:11:42;1.55;;;0.70;;
21539;SDS011;10931;52.164;5.518;2022-07-29T09:14:12;2.92;;;0.60;;
21539;SDS011;10931;52.164;5.518;2022-07-29T09:19:22;1.50;;;0.55;;
21539;SDS011;10931;52.164;5.518;2022-07-29T09:21:50;0.45;;;0.40;;
21539;SDS011;10931;52.164;5.518;2022-07-29T09:27:22;0.75;;;0.60;;
21539;SDS011;10931;52.164;5.518;2022-07-29T09:32:56;1.10;;;0.60;;
21539;SDS011;10931;52.164;5.518;2022-07-29T09:49:54;2.15;;;0.88;;
21539;SDS011;10931;52.164;5.518;2022-07-29T09:52:28;0.82;;;0.63;;
21539;SDS011;10931;52.164;5.518;2022-07-29T09:55:06;2.03;;;0.63;;
21539;SDS011;10931;52.164;5.518;2022-07-29T09:57:51;1.67;;;0.80;;
21539;SDS011;10931;52.164;5.518;2022-07-29T10:00:23;1.27;;;0.80;;
21539;SDS011;10931;52.164;5.518;2022-07-29T10:03:17;2.15;;;0.60;;
21539;SDS011;10931;52.164;5.518;2022-07-29T10:08:44;2.00;;;0.80;;
21539;SDS011;10931;52.164;5.518;2022-07-29T10:15:22;0.98;;;0.70;;
21539;SDS011;10931;52.164;5.518;2022-07-29T10:18:10;1.90;;;0.55;;
21539;SDS011;10931;52.164;5.518;2022-07-29T10:20:37;1.40;;;0.80;;
21539;SDS011;10931;52.164;5.518;2022-07-29T10:25:45;2.00;;;0.68;;
21539;SDS011;10931;52.164;5.518;2022-07-29T10:34:15;0.93;;;0.60;;
21539;SDS011;10931;52.164;5.518;2022-07-29T10:40:00;1.50;;;0.70;;
21539;SDS011;10931;52.164;5.518;2022-07-29T10:43:14;2.03;;;0.88;;
21539;SDS011;10931;52.164;5.518;2022-07-29T10:49:17;1.13;;;0.70;;
21539;SDS011;10931;52.164;5.518;2022-07-29T10:51:58;2.33;;;0.85;;
21539;SDS011;10931;52.164;5.518;2022-07-29T10:55:09;3.28;;;0.82;;
21539;SDS011;10931;52.164;5.518;2022-07-29T10:58:24;0.90;;;0.70;;
21539;SDS011;10931;52.164;5.518;2022-07-29T11:00:53;4.22;;;1.00;;
21539;SDS011;10931;52.164;5.518;2022-07-29T11:06:07;4.72;;;0.80;;
21539;SDS011;10931;52.164;5.518;2022-07-29T11:08:33;1.65;;;0.75;;
21539;SDS011;10931;52.164;5.518;2022-07-29T11:13:54;2.85;;;0.80;;
21539;SDS011;10931;52.164;5.518;2022-07-29T11:16:20;2.30;;;0.88;;
21539;SDS011;10931;52.164;5.518;2022-07-29T11:22:01;3.53;;;0.90;;
21539;SDS011;10931;52.164;5.518;2022-07-29T11:24:30;1.55;;;0.77;;
21539;SDS011;10931;52.164;5.518;2022-07-29T11:32:37;1.77;;;0.70;;
21539;SDS011;10931;52.164;5.518;2022-07-29T11:35:17;2.08;;;0.80;;
21539;SDS011;10931;52.164;5.518;2022-07-29T11:47:11;2.03;;;0.77;;
21539;SDS011;10931;52.164;5.518;2022-07-29T11:52:18;3.97;;;0.80;;
21539;SDS011;10931;52.164;5.518;2022-07-29T11:54:44;2.70;;;1.10;;
21539;SDS011;10931;52.164;5.518;2022-07-29T11:57:22;3.05;;;0.60;;
21539;SDS011;10931;52.164;5.518;2022-07-29T11:59:53;2.92;;;1.67;;
21539;SDS011;10931;52.164;5.518;2022-07-29T12:02:25;1.48;;;1.10;;
21539;SDS011;10931;52.164;5.518;2022-07-29T12:05:06;2.00;;;1.00;;
21539;SDS011;10931;52.164;5.518;2022-07-29T12:07:33;4.65;;;0.90;;
21539;SDS011;10931;52.164;5.518;2022-07-29T12:09:59;5.97;;;1.30;;
21539;SDS011;10931;52.164;5.518;2022-07-29T12:12:25;1.20;;;0.70;;
21539;SDS011;10931;52.164;5.518;2022-07-29T12:14:52;3.53;;;0.70;;
21539;SDS011;10931;52.164;5.518;2022-07-29T12:19:52;2.13;;;0.80;;
21539;SDS011;10931;52.164;5.518;2022-07-29T12:24:55;2.75;;;1.00;;
21539;SDS011;10931;52.164;5.518;2022-07-29T12:27:25;2.90;;;0.70;;
21539;SDS011;10931;52.164;5.518;2022-07-29T12:29:55;3.90;;;1.20;;
21539;SDS011;10931;52.164;5.518;2022-07-29T12:32:22;1.00;;;0.70;;
21539;SDS011;10931;52.164;5.518;2022-07-29T12:34:49;1.33;;;1.00;;
21539;SDS011;10931;52.164;5.518;2022-07-29T12:37:18;1.70;;;1.00;;
21539;SDS011;10931;52.164;5.518;2022-07-29T12:39:44;1.23;;;0.77;;
21539;SDS011;10931;52.164;5.518;2022-07-29T12:42:12;1.17;;;0.70;;
21539;SDS011;10931;52.164;5.518;2022-07-29T12:44:46;3.72;;;0.90;;
21539;SDS011;10931;52.164;5.518;2022-07-29T12:47:13;1.60;;;0.80;;
21539;SDS011;10931;52.164;5.518;2022-07-29T12:49:39;2.83;;;1.05;;
21539;SDS011;10931;52.164;5.518;2022-07-29T12:52:25;1.70;;;0.73;;
21539;SDS011;10931;52.164;5.518;2022-07-29T12:54:56;1.25;;;0.80;;
21539;SDS011;10931;52.164;5.518;2022-07-29T12:57:22;2.58;;;0.73;;
21539;SDS011;10931;52.164;5.518;2022-07-29T13:02:58;1.08;;;0.70;;
21539;SDS011;10931;52.164;5.518;2022-07-29T13:05:41;1.70;;;0.90;;
21539;SDS011;10931;52.164;5.518;2022-07-29T13:08:12;1.13;;;0.70;;
21539;SDS011;10931;52.164;5.518;2022-07-29T13:10:39;1.13;;;0.60;;
21539;SDS011;10931;52.164;5.518;2022-07-29T13:13:08;3.72;;;1.10;;
21539;SDS011;10931;52.164;5.518;2022-07-29T13:15:39;2.35;;;1.00;;
21539;SDS011;10931;52.164;5.518;2022-07-29T13:18:28;0.77;;;0.65;;
21539;SDS011;10931;52.164;5.518;2022-07-29T13:20:55;1.95;;;1.00;;
21539;SDS011;10931;52.164;5.518;2022-07-29T13:23:22;1.02;;;0.60;;
21539;SDS011;10931;52.164;5.518;2022-07-29T13:25:48;1.17;;;0.60;;
21539;SDS011;10931;52.164;5.518;2022-07-29T13:28:14;1.30;;;0.90;;
21539;SDS011;10931;52.164;5.518;2022-07-29T13:30:42;2.53;;;0.70;;
21539;SDS011;10931;52.164;5.518;2022-07-29T13:33:08;0.55;;;0.47;;
21539;SDS011;10931;52.164;5.518;2022-07-29T13:35:33;1.02;;;0.80;;
21539;SDS011;10931;52.164;5.518;2022-07-29T13:37:59;3.35;;;0.90;;
21539;SDS011;10931;52.164;5.518;2022-07-29T13:40:25;3.00;;;0.70;;
21539;SDS011;10931;52.164;5.518;2022-07-29T13:42:50;2.17;;;0.65;;
21539;SDS011;10931;52.164;5.518;2022-07-29T13:45:16;0.68;;;0.65;;
21539;SDS011;10931;52.164;5.518;2022-07-29T13:47:42;1.08;;;0.80;;
21539;SDS011;10931;52.164;5.518;2022-07-29T13:50:08;1.08;;;0.70;;
21539;SDS011;10931;52.164;5.518;2022-07-29T13:52:35;1.05;;;0.60;;
21539;SDS011;10931;52.164;5.518;2022-07-29T13:55:02;1.00;;;0.75;;
21539;SDS011;10931;52.164;5.518;2022-07-29T13:57:29;1.77;;;0.70;;
21539;SDS011;10931;52.164;5.518;2022-07-29T13:59:55;1.55;;;0.85;;
21539;SDS011;10931;52.164;5.518;2022-07-29T14:02:21;0.75;;;0.68;;
21539;SDS011;10931;52.164;5.518;2022-07-29T14:04:47;0.70;;;0.60;;
21539;SDS011;10931;52.164;5.518;2022-07-29T14:07:13;1.30;;;0.60;;
21539;SDS011;10931;52.164;5.518;2022-07-29T14:09:38;1.70;;;0.70;;
21539;SDS011;10931;52.164;5.518;2022-07-29T14:12:04;2.85;;;0.85;;
21539;SDS011;10931;52.164;5.518;2022-07-29T14:14:30;1.48;;;0.80;;
21539;SDS011;10931;52.164;5.518;2022-07-29T14:16:57;2.05;;;1.00;;
21539;SDS011;10931;52.164;5.518;2022-07-29T14:19:23;0.77;;;0.70;;
21539;SDS011;10931;52.164;5.518;2022-07-29T14:21:49;0.75;;;0.60;;
21539;SDS011;10931;52.164;5.518;2022-07-29T14:24:15;2.83;;;0.70;;
21539;SDS011;10931;52.164;5.518;2022-07-29T14:26:40;1.38;;;0.90;;
21539;SDS011;10931;52.164;5.518;2022-07-29T14:29:08;1.60;;;0.90;;
21539;SDS011;10931;52.164;5.518;2022-07-29T14:31:34;3.50;;;0.65;;
21539;SDS011;10931;52.164;5.518;2022-07-29T14:33:59;2.72;;;0.90;;
21539;SDS011;10931;52.164;5.518;2022-07-29T14:36:25;0.68;;;0.57;;
21539;SDS011;10931;52.164;5.518;2022-07-29T14:38:52;0.75;;;0.73;;
21539;SDS011;10931;52.164;5.518;2022-07-29T14:41:18;0.80;;;0.80;;
21539;SDS011;10931;52.164;5.518;2022-07-29T14:43:43;2.55;;;0.52;;
21539;SDS011;10931;52.164;5.518;2022-07-29T14:46:09;0.47;;;0.47;;
21539;SDS011;10931;52.164;5.518;2022-07-29T14:48:37;0.88;;;0.60;;
21539;SDS011;10931;52.164;5.518;2022-07-29T14:51:03;0.60;;;0.60;;
21539;SDS011;10931;52.164;5.518;2022-07-29T14:53:29;1.45;;;0.60;;
21539;SDS011;10931;52.164;5.518;2022-07-29T14:55:54;2.75;;;0.70;;
21539;SDS011;10931;52.164;5.518;2022-07-29T14:58:21;2.28;;;0.75;;
21539;SDS011;10931;52.164;5.518;2022-07-29T15:03:23;4.70;;;1.10;;
21539;SDS011;10931;52.164;5.518;2022-07-29T15:05:58;4.57;;;1.45;;
21539;SDS011;10931;52.164;5.518;2022-07-29T15:08:26;6.80;;;1.20;;
21539;SDS011;10931;52.164;5.518;2022-07-29T15:10:54;5.82;;;1.40;;
21539;SDS011;10931;52.164;5.518;2022-07-29T15:13:38;2.40;;;1.40;;
21539;SDS011;10931;52.164;5.518;2022-07-29T15:16:08;3.53;;;1.30;;
21539;SDS011;10931;52.164;5.518;2022-07-29T15:18:36;3.58;;;1.45;;
21539;SDS011;10931;52.164;5.518;2022-07-29T15:21:03;3.15;;;1.10;;
21539;SDS011;10931;52.164;5.518;2022-07-29T15:23:31;5.15;;;1.30;;
21539;SDS011;10931;52.164;5.518;2022-07-29T15:25:58;4.47;;;1.25;;
21539;SDS011;10931;52.164;5.518;2022-07-29T15:28:24;3.67;;;1.10;;
21539;SDS011;10931;52.164;5.518;2022-07-29T15:30:50;3.13;;;1.35;;
21539;SDS011;10931;52.164;5.518;2022-07-29T15:33:21;3.65;;;1.50;;
21539;SDS011;10931;52.164;5.518;2022-07-29T15:35:49;3.25;;;1.20;;
21539;SDS011;10931;52.164;5.518;2022-07-29T15:38:15;4.38;;;1.30;;
21539;SDS011;10931;52.164;5.518;2022-07-29T15:40:43;3.58;;;1.35;;
21539;SDS011;10931;52.164;5.518;2022-07-29T15:43:22;3.83;;;1.10;;
21539;SDS011;10931;52.164;5.518;2022-07-29T15:45:59;3.38;;;1.20;;
21539;SDS011;10931;52.164;5.518;2022-07-29T15:48:45;2.33;;;1.17;;
21539;SDS011;10931;52.164;5.518;2022-07-29T15:51:11;3.05;;;1.10;;
21539;SDS011;10931;52.164;5.518;2022-07-29T15:53:42;3.38;;;1.60;;
21539;SDS011;10931;52.164;5.518;2022-07-29T15:59:20;5.22;;;1.38;;
21539;SDS011;10931;52.164;5.518;2022-07-29T16:01:46;2.50;;;1.30;;
21539;SDS011;10931;52.164;5.518;2022-07-29T16:11:16;3.67;;;1.30;;
21539;SDS011;10931;52.164;5.518;2022-07-29T16:13:46;5.65;;;1.20;;
21539;SDS011;10931;52.164;5.518;2022-07-29T16:19:20;2.17;;;1.00;;
21539;SDS011;10931;52.164;5.518;2022-07-29T16:24:37;1.63;;;1.13;;
21539;SDS011;10931;52.164;5.518;2022-07-29T16:27:05;2.10;;;0.80;;
21539;SDS011;10931;52.164;5.518;2022-07-29T16:29:43;3.08;;;1.13;;
21539;SDS011;10931;52.164;5.518;2022-07-29T16:32:11;1.92;;;1.00;;
21539;SDS011;10931;52.164;5.518;2022-07-29T16:34:58;1.35;;;0.77;;
21539;SDS011;10931;52.164;5.518;2022-07-29T16:37:37;4.75;;;1.27;;
21539;SDS011;10931;52.164;5.518;2022-07-29T16:40:24;4.85;;;1.40;;
21539;SDS011;10931;52.164;5.518;2022-07-29T16:42:49;2.95;;;1.17;;
21539;SDS011;10931;52.164;5.518;2022-07-29T16:45:28;2.35;;;1.00;;
21539;SDS011;10931;52.164;5.518;2022-07-29T16:48:06;3.88;;;1.33;;
21539;SDS011;10931;52.164;5.518;2022-07-29T16:50:53;2.58;;;1.02;;
21539;SDS011;10931;52.164;5.518;2022-07-29T16:53:28;2.63;;;0.80;;
21539;SDS011;10931;52.164;5.518;2022-07-29T17:06:53;1.58;;;0.93;;
21539;SDS011;10931;52.164;5.518;2022-07-29T17:10:03;2.80;;;1.15;;
21539;SDS011;10931;52.164;5.518;2022-07-29T17:15:44;2.85;;;1.40;;
21539;SDS011;10931;52.164;5.518;2022-07-29T17:18:41;3.38;;;1.08;;
21539;SDS011;10931;52.164;5.518;2022-07-29T17:21:21;3.55;;;1.10;;
21539;SDS011;10931;52.164;5.518;2022-07-29T17:23:50;3.00;;;1.02;;
21539;SDS011;10931;52.164;5.518;2022-07-29T17:26:17;1.63;;;0.90;;
21539;SDS011;10931;52.164;5.518;2022-07-29T17:29:07;1.63;;;0.90;;
21539;SDS011;10931;52.164;5.518;2022-07-29T17:31:53;3.42;;;1.13;;
21539;SDS011;10931;52.164;5.518;2022-07-29T17:34:19;2.38;;;0.98;;
21539;SDS011;10931;52.164;5.518;2022-07-29T17:36:47;3.58;;;1.55;;
21539;SDS011;10931;52.164;5.518;2022-07-29T17:39:25;2.65;;;1.00;;
21539;SDS011;10931;52.164;5.518;2022-07-29T17:41:54;1.60;;;0.90;;
21539;SDS011;10931;52.164;5.518;2022-07-29T17:44:27;3.38;;;1.10;;
21539;SDS011;10931;52.164;5.518;2022-07-29T17:50:32;1.10;;;0.90;;
21539;SDS011;10931;52.164;5.518;2022-07-29T17:53:41;2.60;;;0.85;;
21539;SDS011;10931;52.164;5.518;2022-07-29T17:56:13;2.80;;;0.90;;
21539;SDS011;10931;52.164;5.518;2022-07-29T17:59:06;2.50;;;0.95;;
21539;SDS011;10931;52.164;5.518;2022-07-29T18:04:16;2.15;;;1.05;;
21539;SDS011;10931;52.164;5.518;2022-07-29T18:15:58;2.55;;;1.25;;
21539;SDS011;10931;52.164;5.518;2022-07-29T18:21:39;5.78;;;0.88;;
21539;SDS011;10931;52.164;5.518;2022-07-29T18:24:06;2.17;;;0.95;;
21539;SDS011;10931;52.164;5.518;2022-07-29T18:26:41;1.77;;;0.90;;
21539;SDS011;10931;52.164;5.518;2022-07-29T18:29:14;3.17;;;1.08;;
21539;SDS011;10931;52.164;5.518;2022-07-29T18:31:44;1.42;;;0.93;;
21539;SDS011;10931;52.164;5.518;2022-07-29T18:34:13;2.42;;;1.10;;
21539;SDS011;10931;52.164;5.518;2022-07-29T18:36:42;0.98;;;0.80;;
21539;SDS011;10931;52.164;5.518;2022-07-29T18:39:10;2.38;;;1.15;;
21539;SDS011;10931;52.164;5.518;2022-07-29T18:41:43;2.28;;;0.95;;
21539;SDS011;10931;52.164;5.518;2022-07-29T18:44:31;1.50;;;0.77;;
21539;SDS011;10931;52.164;5.518;2022-07-29T18:47:04;1.70;;;0.90;;
21539;SDS011;10931;52.164;5.518;2022-07-29T18:49:37;2.05;;;0.85;;
21539;SDS011;10931;52.164;5.518;2022-07-29T18:52:05;1.48;;;0.95;;